Time;durP1;ratioP1;P1;durP2;ratioP2;P2;SDS_P1;SDS_P2;PMS_P1;PMS_P2;Temp;Humidity;BMP_temperature;BMP_pressure;BME280_temperature;BME280_humidity;BME280_pressure;Samples;Min_cycle;Max_cycle;Signal;HPM_P1;HPM_P2
2022/11/18 00:00:21;;;;;;;5.23;2.20;;;;;;;;;;5023022;28;20799;-44
2022/11/18 00:02:47;;;;;;;3.90;2.70;;;;;;;;;;5023635;28;20440;-44
2022/11/18 00:05:13;;;;;;;8.83;2.53;;;;;;;;;;5023155;28;20441;-43
2022/11/18 00:07:39;;;;;;;3.00;2.43;;;;;;;;;;5027142;28;20988;-44
2022/11/18 00:10:05;;;;;;;2.90;2.47;;;;;;;;;;5020934;28;20461;-45
2022/11/18 00:15:16;;;;;;;4.43;2.90;;;;;;;;;;5015110;28;20823;-44
2022/11/18 00:17:42;;;;;;;6.20;2.37;;;;;;;;;;5023015;28;20405;-43
2022/11/18 00:20:08;;;;;;;8.90;2.50;;;;;;;;;;5026515;28;20401;-44
2022/11/18 00:22:34;;;;;;;5.33;2.70;;;;;;;;;;5024959;28;20489;-44
2022/11/18 00:25:00;;;;;;;6.67;2.80;;;;;;;;;;5025842;28;20410;-44
2022/11/18 00:27:28;;;;;;;3.10;2.80;;;;;;;;;;5021496;28;20418;-44
2022/11/18 00:29:54;;;;;;;4.00;2.73;;;;;;;;;;5016977;28;20860;-45
2022/11/18 00:32:20;;;;;;;5.80;3.43;;;;;;;;;;5025767;28;20467;-44
2022/11/18 00:34:46;;;;;;;4.70;2.63;;;;;;;;;;5022483;28;20408;-44
2022/11/18 00:37:12;;;;;;;5.13;2.93;;;;;;;;;;5025471;28;20931;-44
2022/11/18 00:39:38;;;;;;;4.30;2.63;;;;;;;;;;5022095;28;20785;-43
2022/11/18 00:44:49;;;;;;;6.30;2.97;;;;;;;;;;5022280;28;20412;-43
2022/11/18 00:47:15;;;;;;;4.23;3.10;;;;;;;;;;5021983;28;20783;-44
2022/11/18 00:49:41;;;;;;;9.07;2.73;;;;;;;;;;5027076;28;20898;-44
2022/11/18 00:52:07;;;;;;;8.23;2.50;;;;;;;;;;5020225;28;20426;-44
2022/11/18 00:54:33;;;;;;;9.27;3.10;;;;;;;;;;5020461;28;20411;-44
2022/11/18 00:56:58;;;;;;;4.80;2.40;;;;;;;;;;5022226;28;20410;-44
2022/11/18 00:59:25;;;;;;;4.23;2.80;;;;;;;;;;5021948;28;20403;-44
2022/11/18 01:01:51;;;;;;;3.30;2.20;;;;;;;;;;5021879;28;20442;-44
2022/11/18 01:04:17;;;;;;;3.03;2.50;;;;;;;;;;5025905;28;20488;-44
2022/11/18 01:06:43;;;;;;;6.50;3.20;;;;;;;;;;5024714;28;20422;-44
2022/11/18 01:09:08;;;;;;;6.67;2.73;;;;;;;;;;5018508;28;20410;-44
2022/11/18 01:14:19;;;;;;;3.40;3.10;;;;;;;;;;5017716;28;20417;-44
2022/11/18 01:16:49;;;;;;;5.83;3.33;;;;;;;;;;5021788;28;20408;-44
2022/11/18 01:19:15;;;;;;;4.50;3.10;;;;;;;;;;5024125;28;20482;-44
2022/11/18 01:21:41;;;;;;;3.10;2.47;;;;;;;;;;5020816;28;20521;-44
2022/11/18 01:24:07;;;;;;;5.23;2.90;;;;;;;;;;5022914;28;20436;-44
2022/11/18 01:26:33;;;;;;;3.10;2.50;;;;;;;;;;5019800;28;20406;-43
2022/11/18 01:28:59;;;;;;;8.43;3.07;;;;;;;;;;5021555;28;20877;-44
2022/11/18 01:31:25;;;;;;;2.73;2.53;;;;;;;;;;5023267;28;20553;-44
2022/11/18 01:33:51;;;;;;;3.23;2.60;;;;;;;;;;5019776;28;20453;-44
2022/11/18 01:36:19;;;;;;;6.17;2.60;;;;;;;;;;5021862;28;20403;-44
2022/11/18 01:38:45;;;;;;;4.57;2.40;;;;;;;;;;5020925;28;20399;-44
2022/11/18 01:41:11;;;;;;;3.00;2.23;;;;;;;;;;5020148;28;20450;-44
2022/11/18 01:43:47;;;;;;;9.10;2.33;;;;;;;;;;5020830;28;20415;-43
2022/11/18 01:46:13;;;;;;;6.63;2.43;;;;;;;;;;5015942;28;20771;-44
2022/11/18 01:48:39;;;;;;;3.33;2.23;;;;;;;;;;5023581;28;20422;-44
2022/11/18 01:51:08;;;;;;;6.83;2.60;;;;;;;;;;5017367;28;20884;-44
2022/11/18 01:53:37;;;;;;;3.43;2.47;;;;;;;;;;5017842;28;20422;-44
2022/11/18 01:56:14;;;;;;;5.30;2.53;;;;;;;;;;5022968;28;20411;-44
2022/11/18 01:58:45;;;;;;;5.67;2.53;;;;;;;;;;5022295;28;20460;-44
2022/11/18 02:01:12;;;;;;;5.03;1.93;;;;;;;;;;5013440;28;20423;-44
2022/11/18 02:03:38;;;;;;;7.17;2.03;;;;;;;;;;5016855;28;20422;-44
2022/11/18 02:06:05;;;;;;;3.70;2.10;;;;;;;;;;5022111;28;20437;-44
2022/11/18 02:08:31;;;;;;;1.80;1.70;;;;;;;;;;5025493;28;20955;-43
2022/11/18 02:10:57;;;;;;;2.70;2.10;;;;;;;;;;5021585;28;20470;-44
2022/11/18 02:13:23;;;;;;;4.17;2.07;;;;;;;;;;5024359;28;20478;-45
2022/11/18 02:15:58;;;;;;;1.60;1.50;;;;;;;;;;5021397;28;20508;-44
2022/11/18 02:18:37;;;;;;;2.53;1.77;;;;;;;;;;5022161;28;20403;-44
2022/11/18 02:21:09;;;;;;;4.23;2.37;;;;;;;;;;5021074;28;20418;-44
2022/11/18 02:23:54;;;;;;;9.23;2.77;;;;;;;;;;5020579;28;20407;-44
2022/11/18 02:26:35;;;;;;;3.43;2.67;;;;;;;;;;5020236;28;20422;-43
2022/11/18 02:29:07;;;;;;;12.23;3.20;;;;;;;;;;5021555;28;20930;-43
2022/11/18 02:31:39;;;;;;;6.07;3.03;;;;;;;;;;5020664;28;20557;-43
2022/11/18 02:34:23;;;;;;;6.40;3.93;;;;;;;;;;5022415;28;20412;-45
2022/11/18 02:36:49;;;;;;;12.07;4.33;;;;;;;;;;5021277;28;21076;-46
2022/11/18 02:39:21;;;;;;;9.50;3.30;;;;;;;;;;5020794;28;20478;-45
2022/11/18 02:41:48;;;;;;;3.23;2.47;;;;;;;;;;5026006;28;20433;-45
2022/11/18 02:44:15;;;;;;;3.20;2.23;;;;;;;;;;5020361;28;20418;-45
2022/11/18 02:46:43;;;;;;;6.07;3.23;;;;;;;;;;5018320;28;20418;-45
2022/11/18 02:49:13;;;;;;;8.07;3.00;;;;;;;;;;5020868;28;20472;-45
2022/11/18 02:51:41;;;;;;;6.90;3.07;;;;;;;;;;5020131;28;20465;-45
2022/11/18 02:54:07;;;;;;;4.70;3.43;;;;;;;;;;5021843;28;20995;-44
2022/11/18 02:56:34;;;;;;;5.70;3.80;;;;;;;;;;5022381;28;20505;-45
2022/11/18 02:59:00;;;;;;;3.70;3.20;;;;;;;;;;5024002;28;20915;-45
2022/11/18 03:01:28;;;;;;;7.83;3.70;;;;;;;;;;5019337;28;20862;-45
2022/11/18 03:03:55;;;;;;;8.87;4.17;;;;;;;;;;5015756;28;20428;-45
2022/11/18 03:06:21;;;;;;;6.27;4.40;;;;;;;;;;5023263;28;20925;-45
2022/11/18 03:08:48;;;;;;;4.70;3.70;;;;;;;;;;5020583;28;20433;-44
2022/11/18 03:11:17;;;;;;;6.60;3.80;;;;;;;;;;5023451;28;20532;-45
2022/11/18 03:14:05;;;;;;;6.13;3.87;;;;;;;;;;5016999;28;20425;-45
2022/11/18 03:16:38;;;;;;;5.80;4.00;;;;;;;;;;5015458;28;20416;-45
2022/11/18 03:19:03;;;;;;;6.40;2.90;;;;;;;;;;5021862;28;20478;-45
2022/11/18 03:21:38;;;;;;;5.40;3.20;;;;;;;;;;5020455;28;20971;-44
2022/11/18 03:24:10;;;;;;;5.87;3.43;;;;;;;;;;5025782;28;20477;-45
2022/11/18 03:26:39;;;;;;;7.70;3.20;;;;;;;;;;5022695;28;20835;-45
2022/11/18 03:29:12;;;;;;;8.10;3.70;;;;;;;;;;5017548;28;20495;-44
2022/11/18 03:31:45;;;;;;;4.00;3.07;;;;;;;;;;5016856;28;20487;-45
2022/11/18 03:34:14;;;;;;;6.10;2.70;;;;;;;;;;5023143;28;20456;-44
2022/11/18 03:36:43;;;;;;;6.13;3.43;;;;;;;;;;5021211;28;20413;-45
2022/11/18 03:39:10;;;;;;;3.40;3.10;;;;;;;;;;5022698;28;20405;-45
2022/11/18 03:41:39;;;;;;;5.37;4.17;;;;;;;;;;5019601;28;20823;-45
2022/11/18 03:44:09;;;;;;;11.17;3.20;;;;;;;;;;5021972;28;20800;-45
2022/11/18 03:46:43;;;;;;;6.27;3.57;;;;;;;;;;5019111;28;20911;-45
2022/11/18 03:49:14;;;;;;;5.07;4.37;;;;;;;;;;5019441;28;20420;-45
2022/11/18 03:51:42;;;;;;;11.20;4.23;;;;;;;;;;5024168;28;20465;-44
2022/11/18 03:54:11;;;;;;;12.50;4.17;;;;;;;;;;5021715;28;20910;-45
2022/11/18 03:56:41;;;;;;;8.87;4.03;;;;;;;;;;5021777;28;20415;-45
2022/11/18 03:59:13;;;;;;;8.70;4.53;;;;;;;;;;5023655;28;20402;-43
2022/11/18 04:01:41;;;;;;;7.53;4.03;;;;;;;;;;5022427;28;20434;-45
2022/11/18 04:04:07;;;;;;;10.43;3.23;;;;;;;;;;5025186;28;20410;-45
2022/11/18 04:06:42;;;;;;;11.73;4.30;;;;;;;;;;5025202;28;20504;-45
2022/11/18 04:09:13;;;;;;;6.70;3.47;;;;;;;;;;5026723;28;20409;-45
2022/11/18 04:12:01;;;;;;;4.80;3.47;;;;;;;;;;5023833;28;20978;-43
2022/11/18 04:14:28;;;;;;;12.30;3.70;;;;;;;;;;5015246;28;20483;-45
2022/11/18 04:16:54;;;;;;;3.80;3.50;;;;;;;;;;5024411;28;20445;-43
2022/11/18 04:19:20;;;;;;;4.90;3.37;;;;;;;;;;5024958;28;20446;-43
2022/11/18 04:21:47;;;;;;;3.00;2.77;;;;;;;;;;5021495;28;20480;-43
2022/11/18 04:24:13;;;;;;;4.70;2.73;;;;;;;;;;5024562;28;20411;-43
2022/11/18 04:26:39;;;;;;;10.13;3.43;;;;;;;;;;5022404;28;20419;-42
2022/11/18 04:29:05;;;;;;;7.10;3.07;;;;;;;;;;5023196;28;20928;-43
2022/11/18 04:31:31;;;;;;;3.30;3.00;;;;;;;;;;5021615;28;20471;-43
2022/11/18 04:33:57;;;;;;;6.03;3.40;;;;;;;;;;5028053;28;20899;-43
2022/11/18 04:36:23;;;;;;;3.30;3.00;;;;;;;;;;5023397;28;20433;-43
2022/11/18 04:38:49;;;;;;;5.97;3.30;;;;;;;;;;5019857;28;20407;-43
2022/11/18 04:41:15;;;;;;;7.23;2.70;;;;;;;;;;5021984;28;20514;-43
2022/11/18 04:43:41;;;;;;;3.23;2.67;;;;;;;;;;5021970;28;20510;-43
2022/11/18 04:46:07;;;;;;;3.93;2.67;;;;;;;;;;5024734;28;20471;-43
2022/11/18 04:48:33;;;;;;;5.27;3.13;;;;;;;;;;5024696;28;20900;-43
2022/11/18 04:51:05;;;;;;;5.20;4.00;;;;;;;;;;5025882;28;20476;-42
2022/11/18 04:53:31;;;;;;;7.70;3.10;;;;;;;;;;5022541;28;20418;-45
2022/11/18 04:56:03;;;;;;;3.33;2.80;;;;;;;;;;5018079;28;20417;-52
2022/11/18 04:58:29;;;;;;;4.53;3.37;;;;;;;;;;5025010;28;20406;-43
2022/11/18 05:00:55;;;;;;;3.83;2.60;;;;;;;;;;5022646;28;20472;-43
2022/11/18 05:03:21;;;;;;;3.97;2.60;;;;;;;;;;5024380;28;20410;-43
2022/11/18 05:05:47;;;;;;;6.87;3.10;;;;;;;;;;5021796;28;20411;-43
2022/11/18 05:08:13;;;;;;;4.33;2.60;;;;;;;;;;5023903;28;20415;-43
2022/11/18 05:10:39;;;;;;;3.20;3.00;;;;;;;;;;5020337;28;20599;-43
2022/11/18 05:13:05;;;;;;;8.53;3.20;;;;;;;;;;5028811;28;20461;-43
2022/11/18 05:15:31;;;;;;;4.93;2.70;;;;;;;;;;5025627;28;20420;-42
2022/11/18 05:17:57;;;;;;;4.70;2.77;;;;;;;;;;5020930;28;20773;-43
2022/11/18 05:20:23;;;;;;;5.33;3.23;;;;;;;;;;5021997;28;20417;-43
2022/11/18 05:22:49;;;;;;;5.90;3.40;;;;;;;;;;5021721;28;20430;-42
2022/11/18 05:25:15;;;;;;;5.43;3.37;;;;;;;;;;5021740;28;20441;-43
2022/11/18 05:27:41;;;;;;;5.43;2.93;;;;;;;;;;5021040;28;20837;-43
2022/11/18 05:30:07;;;;;;;5.37;2.70;;;;;;;;;;5026772;28;20462;-43
2022/11/18 05:32:33;;;;;;;4.97;3.00;;;;;;;;;;5024052;28;20434;-43
2022/11/18 05:34:59;;;;;;;5.33;2.93;;;;;;;;;;5019070;28;20769;-43
2022/11/18 05:37:25;;;;;;;4.03;2.50;;;;;;;;;;5020111;28;20411;-43
2022/11/18 05:39:51;;;;;;;4.90;2.50;;;;;;;;;;5021462;28;20410;-43
2022/11/18 05:45:01;;;;;;;8.33;3.30;;;;;;;;;;5022174;28;20822;-43
2022/11/18 05:47:58;;;;;;;3.10;2.80;;;;;;;;;;5022920;28;20411;-43
2022/11/18 05:50:13;;;;;;;4.37;2.73;;;;;;;;;;5017782;28;20750;-43
2022/11/18 05:52:39;;;;;;;6.50;2.97;;;;;;;;;;5021064;28;20509;-43
2022/11/18 05:55:05;;;;;;;7.77;3.80;;;;;;;;;;5021314;28;20419;-43
2022/11/18 05:57:31;;;;;;;5.40;3.07;;;;;;;;;;5025055;28;20422;-43
2022/11/18 05:59:57;;;;;;;4.93;2.80;;;;;;;;;;5020034;28;20422;-43
2022/11/18 06:02:23;;;;;;;11.40;3.30;;;;;;;;;;5021992;28;20434;-43
2022/11/18 06:04:57;;;;;;;3.00;2.70;;;;;;;;;;5019856;28;20411;-43
2022/11/18 06:07:26;;;;;;;5.97;3.23;;;;;;;;;;5014185;28;20431;-43
2022/11/18 06:09:54;;;;;;;6.37;3.70;;;;;;;;;;5020978;28;20549;-42
2022/11/18 06:12:22;;;;;;;8.70;3.23;;;;;;;;;;5025035;28;20430;-43
2022/11/18 06:14:51;;;;;;;5.57;3.03;;;;;;;;;;5024791;28;20414;-43
2022/11/18 06:17:20;;;;;;;3.60;2.90;;;;;;;;;;5019459;28;20459;-43
2022/11/18 06:19:46;;;;;;;5.83;3.50;;;;;;;;;;5016605;28;20753;-44
2022/11/18 06:22:12;;;;;;;3.83;3.40;;;;;;;;;;5023422;28;20441;-43
2022/11/18 06:24:38;;;;;;;3.93;3.50;;;;;;;;;;5022761;28;20770;-44
2022/11/18 06:27:04;;;;;;;5.33;3.20;;;;;;;;;;5022809;28;20422;-43
2022/11/18 06:29:30;;;;;;;11.27;4.17;;;;;;;;;;5022264;28;20415;-43
2022/11/18 06:31:56;;;;;;;3.40;3.00;;;;;;;;;;5022852;28;20446;-43
2022/11/18 06:34:22;;;;;;;9.50;3.60;;;;;;;;;;5018419;28;20468;-42
2022/11/18 06:36:48;;;;;;;3.40;3.10;;;;;;;;;;5023041;28;20506;-42
2022/11/18 06:39:14;;;;;;;5.90;3.53;;;;;;;;;;5022265;28;20450;-42
2022/11/18 06:41:40;;;;;;;9.10;3.97;;;;;;;;;;5020536;28;20442;-43
2022/11/18 06:44:06;;;;;;;4.77;3.30;;;;;;;;;;5023300;28;20399;-42
2022/11/18 06:49:17;;;;;;;6.57;3.87;;;;;;;;;;5019985;28;20819;-42
2022/11/18 06:51:43;;;;;;;9.97;3.70;;;;;;;;;;5019919;28;20470;-43
2022/11/18 06:54:09;;;;;;;7.60;3.80;;;;;;;;;;5026599;28;20804;-43
2022/11/18 06:56:35;;;;;;;7.43;3.53;;;;;;;;;;5023474;28;20816;-43
2022/11/18 06:59:01;;;;;;;6.50;3.90;;;;;;;;;;5018445;28;20600;-42
2022/11/18 07:01:28;;;;;;;4.70;3.90;;;;;;;;;;5017925;28;20441;-43
2022/11/18 07:03:55;;;;;;;6.70;3.90;;;;;;;;;;5020230;28;20896;-43
2022/11/18 07:06:22;;;;;;;6.83;4.90;;;;;;;;;;5023010;28;20417;-43
2022/11/18 07:08:49;;;;;;;9.27;5.07;;;;;;;;;;5020668;28;20913;-43
2022/11/18 07:11:16;;;;;;;7.23;4.80;;;;;;;;;;5025149;28;20626;-42
2022/11/18 07:13:43;;;;;;;8.10;4.00;;;;;;;;;;5022301;28;20958;-43
2022/11/18 07:16:10;;;;;;;6.67;5.00;;;;;;;;;;5015803;28;20406;-43
2022/11/18 07:18:38;;;;;;;7.20;5.23;;;;;;;;;;5022519;28;20421;-42
2022/11/18 07:21:05;;;;;;;10.50;4.73;;;;;;;;;;5020599;28;20411;-43
2022/11/18 07:23:31;;;;;;;10.20;4.97;;;;;;;;;;5022208;28;20509;-43
2022/11/18 07:25:57;;;;;;;6.90;4.27;;;;;;;;;;5021221;28;20408;-43
2022/11/18 07:28:23;;;;;;;7.40;4.53;;;;;;;;;;5023297;28;20414;-42
2022/11/18 07:30:49;;;;;;;8.03;4.93;;;;;;;;;;5024584;28;20468;-43
2022/11/18 07:33:15;;;;;;;8.90;4.63;;;;;;;;;;5013599;28;20912;-42
2022/11/18 07:35:44;;;;;;;8.07;4.73;;;;;;;;;;5027233;28;20414;-42
2022/11/18 07:38:10;;;;;;;7.80;4.47;;;;;;;;;;5023757;28;20779;-43
2022/11/18 07:40:36;;;;;;;8.00;5.20;;;;;;;;;;5022480;28;20410;-42
2022/11/18 07:43:02;;;;;;;7.03;4.50;;;;;;;;;;5024403;28;20435;-43
2022/11/18 07:45:28;;;;;;;8.53;5.00;;;;;;;;;;5022992;28;20443;-43
2022/11/18 07:47:54;;;;;;;8.10;5.20;;;;;;;;;;5023365;28;20469;-43
2022/11/18 07:50:20;;;;;;;7.43;5.00;;;;;;;;;;5022440;28;20462;-42
2022/11/18 07:52:46;;;;;;;6.33;4.83;;;;;;;;;;5027676;28;20802;-43
2022/11/18 07:55:12;;;;;;;8.57;4.37;;;;;;;;;;5021663;28;20828;-42
2022/11/18 07:57:38;;;;;;;11.63;6.93;;;;;;;;;;5020506;28;20979;-43
2022/11/18 08:00:04;;;;;;;5.70;5.07;;;;;;;;;;5022471;28;20854;-42
2022/11/18 08:02:30;;;;;;;10.03;4.63;;;;;;;;;;5022592;28;20427;-43
2022/11/18 08:04:56;;;;;;;7.90;4.20;;;;;;;;;;5024077;28;20419;-43
2022/11/18 08:07:22;;;;;;;9.17;5.10;;;;;;;;;;5025995;28;20427;-43
2022/11/18 08:09:48;;;;;;;5.83;5.03;;;;;;;;;;5025709;28;20425;-43
2022/11/18 08:12:14;;;;;;;6.73;4.73;;;;;;;;;;5019552;28;20517;-43
2022/11/18 08:14:40;;;;;;;8.27;4.40;;;;;;;;;;5018744;28;20419;-43
2022/11/18 08:17:06;;;;;;;13.50;4.73;;;;;;;;;;5025219;28;20920;-43
2022/11/18 08:19:33;;;;;;;8.10;4.20;;;;;;;;;;5024360;28;20764;-43
2022/11/18 08:21:59;;;;;;;9.60;4.60;;;;;;;;;;5023830;28;20433;-43
2022/11/18 08:24:25;;;;;;;6.77;4.80;;;;;;;;;;5023583;28;20506;-43
2022/11/18 08:26:51;;;;;;;7.03;4.30;;;;;;;;;;5022629;28;20429;-43
2022/11/18 08:29:17;;;;;;;10.40;4.47;;;;;;;;;;5016758;28;20414;-42
2022/11/18 08:31:43;;;;;;;10.07;5.27;;;;;;;;;;5024913;28;20502;-43
2022/11/18 08:34:09;;;;;;;10.30;5.03;;;;;;;;;;5021121;28;20429;-43
2022/11/18 08:36:36;;;;;;;12.50;5.03;;;;;;;;;;5021785;28;20868;-42
2022/11/18 08:39:04;;;;;;;5.30;4.50;;;;;;;;;;5023437;28;20412;-43
2022/11/18 08:41:34;;;;;;;7.80;5.10;;;;;;;;;;5021564;28;20976;-42
2022/11/18 08:44:01;;;;;;;7.30;5.10;;;;;;;;;;5022170;28;20446;-43
2022/11/18 08:46:27;;;;;;;6.70;4.50;;;;;;;;;;5022117;28;20502;-42
2022/11/18 08:48:53;;;;;;;8.17;4.70;;;;;;;;;;5027021;28;20409;-43
2022/11/18 08:51:19;;;;;;;12.73;4.23;;;;;;;;;;5021524;28;20826;-42
2022/11/18 08:53:45;;;;;;;8.03;4.63;;;;;;;;;;5019015;28;20408;-43
2022/11/18 08:56:13;;;;;;;8.40;4.67;;;;;;;;;;4998011;28;20416;-43
2022/11/18 08:58:40;;;;;;;6.33;4.67;;;;;;;;;;5021650;28;20444;-43
2022/11/18 09:01:06;;;;;;;7.70;4.53;;;;;;;;;;5024000;28;20399;-43
2022/11/18 09:03:33;;;;;;;17.23;5.37;;;;;;;;;;5023772;28;20411;-42
2022/11/18 09:06:13;;;;;;;5.20;4.80;;;;;;;;;;5025193;28;20413;-43
2022/11/18 09:08:39;;;;;;;7.70;4.50;;;;;;;;;;5022542;28;20449;-42
2022/11/18 09:11:10;;;;;;;6.17;4.30;;;;;;;;;;5016501;28;20507;-43
2022/11/18 09:13:36;;;;;;;5.50;4.80;;;;;;;;;;5024651;28;20432;-42
2022/11/18 09:16:02;;;;;;;5.10;4.60;;;;;;;;;;5021804;28;20409;-42
2022/11/18 09:18:28;;;;;;;6.10;4.43;;;;;;;;;;5022512;28;20406;-43
2022/11/18 09:21:01;;;;;;;6.67;4.57;;;;;;;;;;5022069;28;20438;-43
2022/11/18 09:23:27;;;;;;;4.87;4.37;;;;;;;;;;5015683;28;20420;-43
2022/11/18 09:25:57;;;;;;;8.60;4.53;;;;;;;;;;5021507;28;20938;-43
2022/11/18 09:28:24;;;;;;;5.60;4.10;;;;;;;;;;5021170;28;20857;-43
2022/11/18 09:30:50;;;;;;;6.17;4.70;;;;;;;;;;5016125;28;20462;-43
2022/11/18 09:33:16;;;;;;;6.63;4.37;;;;;;;;;;5019835;28;20411;-43
2022/11/18 09:35:45;;;;;;;5.87;4.30;;;;;;;;;;5018759;28;20473;-42
2022/11/18 09:38:11;;;;;;;5.60;5.10;;;;;;;;;;5013000;28;20476;-42
2022/11/18 09:40:44;;;;;;;6.40;4.87;;;;;;;;;;5020707;28;20918;-42
2022/11/18 09:43:13;;;;;;;9.53;5.30;;;;;;;;;;5024498;28;20423;-43
2022/11/18 09:45:43;;;;;;;9.27;5.20;;;;;;;;;;5026501;28;20414;-43
2022/11/18 09:48:15;;;;;;;6.53;5.37;;;;;;;;;;5020624;28;20405;-43
2022/11/18 09:50:41;;;;;;;7.20;4.70;;;;;;;;;;5021214;28;20462;-44
2022/11/18 09:53:20;;;;;;;6.63;5.07;;;;;;;;;;5016271;28;20489;-42
2022/11/18 09:55:47;;;;;;;6.10;4.87;;;;;;;;;;5023745;28;20916;-42
2022/11/18 09:58:28;;;;;;;8.73;4.63;;;;;;;;;;5021469;28;20816;-42
2022/11/18 10:00:54;;;;;;;5.40;4.63;;;;;;;;;;5019324;28;20507;-43
2022/11/18 10:03:25;;;;;;;6.33;5.03;;;;;;;;;;5021326;28;20481;-43
2022/11/18 10:05:54;;;;;;;11.83;5.20;;;;;;;;;;5021004;28;20905;-42
2022/11/18 10:08:28;;;;;;;7.83;5.17;;;;;;;;;;5020369;28;20412;-42
2022/11/18 10:11:10;;;;;;;4.60;4.20;;;;;;;;;;5021028;28;20517;-43
2022/11/18 10:13:39;;;;;;;13.10;5.23;;;;;;;;;;5022342;28;20439;-43
2022/11/18 10:16:15;;;;;;;4.90;3.93;;;;;;;;;;5023929;28;20450;-43
2022/11/18 10:18:51;;;;;;;8.00;4.67;;;;;;;;;;5022042;28;20447;-42
2022/11/18 10:21:26;;;;;;;6.27;3.80;;;;;;;;;;5008373;28;20448;-42
2022/11/18 10:23:54;;;;;;;5.70;4.40;;;;;;;;;;5022403;28;20945;-42
2022/11/18 10:26:33;;;;;;;7.50;4.17;;;;;;;;;;5022268;28;21002;-43
2022/11/18 10:28:59;;;;;;;5.63;4.37;;;;;;;;;;5019145;28;20483;-43
2022/11/18 10:31:25;;;;;;;4.40;4.03;;;;;;;;;;5019848;28;20986;-42
2022/11/18 10:33:58;;;;;;;8.23;4.27;;;;;;;;;;5020445;28;20806;-43
2022/11/18 10:36:24;;;;;;;6.40;4.83;;;;;;;;;;5020146;28;20418;-42
2022/11/18 10:39:04;;;;;;;4.57;4.00;;;;;;;;;;5020556;28;20758;-43
2022/11/18 10:41:37;;;;;;;4.40;4.00;;;;;;;;;;5022546;28;20456;-42
2022/11/18 10:44:03;;;;;;;8.47;4.87;;;;;;;;;;5023972;28;20423;-42
2022/11/18 10:46:31;;;;;;;7.63;3.67;;;;;;;;;;5020126;28;20409;-43
2022/11/18 10:49:09;;;;;;;5.73;3.70;;;;;;;;;;5014832;28;20468;-43
2022/11/18 10:51:36;;;;;;;4.13;3.70;;;;;;;;;;5022735;28;20837;-43
2022/11/18 10:54:18;;;;;;;7.20;4.10;;;;;;;;;;5020648;28;20415;-43
2022/11/18 10:56:52;;;;;;;12.13;4.50;;;;;;;;;;5019197;28;20406;-43
2022/11/18 10:59:23;;;;;;;8.77;4.07;;;;;;;;;;5013192;28;20427;-44
2022/11/18 11:02:00;;;;;;;8.00;3.60;;;;;;;;;;5021626;28;20771;-44
2022/11/18 11:04:26;;;;;;;8.27;2.83;;;;;;;;;;5015349;28;20811;-43
2022/11/18 11:06:52;;;;;;;5.10;3.00;;;;;;;;;;5026355;28;20416;-43
2022/11/18 11:09:21;;;;;;;7.63;2.73;;;;;;;;;;5024702;28;20409;-44
2022/11/18 11:12:06;;;;;;;4.90;3.23;;;;;;;;;;5026364;28;20466;-43
2022/11/18 11:14:52;;;;;;;3.20;2.90;;;;;;;;;;5022128;28;20435;-43
2022/11/18 11:17:20;;;;;;;8.50;3.30;;;;;;;;;;5013808;28;20407;-43
2022/11/18 11:19:49;;;;;;;3.37;2.90;;;;;;;;;;5016300;28;20412;-44
2022/11/18 11:22:16;;;;;;;5.20;3.00;;;;;;;;;;5025651;28;20438;-43
2022/11/18 11:24:42;;;;;;;4.80;3.43;;;;;;;;;;5022240;28;20400;-43
2022/11/18 11:27:27;;;;;;;6.10;2.90;;;;;;;;;;5025890;28;20520;-43
2022/11/18 11:29:59;;;;;;;3.60;3.10;;;;;;;;;;5023997;28;20590;-42
2022/11/18 11:32:43;;;;;;;6.63;3.80;;;;;;;;;;5023410;28;20438;-43
2022/11/18 11:35:09;;;;;;;4.20;3.73;;;;;;;;;;5022707;28;20383;-42
2022/11/18 11:37:35;;;;;;;5.63;3.30;;;;;;;;;;5021295;28;20471;-43
2022/11/18 11:40:20;;;;;;;7.00;3.67;;;;;;;;;;5023660;28;20843;-43
2022/11/18 11:42:57;;;;;;;7.23;3.20;;;;;;;;;;5024493;28;20515;-43
2022/11/18 11:45:26;;;;;;;5.93;3.70;;;;;;;;;;5019632;28;20449;-43
2022/11/18 11:47:56;;;;;;;5.40;3.00;;;;;;;;;;5019264;28;20415;-43
2022/11/18 11:50:53;;;;;;;3.10;2.90;;;;;;;;;;5019656;28;20463;-43
2022/11/18 11:53:28;;;;;;;4.27;2.47;;;;;;;;;;5015262;28;20453;-43
2022/11/18 11:56:10;;;;;;;3.30;2.50;;;;;;;;;;5024159;28;20490;-42
2022/11/18 11:58:48;;;;;;;4.97;2.73;;;;;;;;;;5020158;28;20472;-43
2022/11/18 12:01:20;;;;;;;4.37;2.67;;;;;;;;;;5018052;28;20442;-43
2022/11/18 12:03:48;;;;;;;6.77;2.13;;;;;;;;;;5021458;28;20418;-44
2022/11/18 12:06:14;;;;;;;5.20;2.60;;;;;;;;;;5026178;28;20766;-43
2022/11/18 12:08:55;;;;;;;6.67;2.57;;;;;;;;;;5022663;28;20934;-43
2022/11/18 12:11:28;;;;;;;4.57;2.40;;;;;;;;;;5023646;28;20830;-43
2022/11/18 12:14:02;;;;;;;6.27;2.70;;;;;;;;;;5020147;28;20424;-44
2022/11/18 12:16:31;;;;;;;6.83;2.47;;;;;;;;;;5027632;28;20398;-43
2022/11/18 12:18:59;;;;;;;5.83;2.40;;;;;;;;;;5025815;28;20902;-43
2022/11/18 12:21:44;;;;;;;4.00;2.47;;;;;;;;;;5025284;28;20472;-43
2022/11/18 12:24:23;;;;;;;5.30;2.93;;;;;;;;;;5020046;28;20857;-43
2022/11/18 12:26:50;;;;;;;2.77;2.57;;;;;;;;;;5018398;28;20394;-43
2022/11/18 12:29:16;;;;;;;3.33;2.33;;;;;;;;;;5025354;28;20420;-44
2022/11/18 12:31:42;;;;;;;4.73;2.67;;;;;;;;;;5023448;28;20468;-43
2022/11/18 12:34:27;;;;;;;4.00;2.83;;;;;;;;;;5025493;28;20869;-44
2022/11/18 12:36:53;;;;;;;5.13;2.33;;;;;;;;;;5020668;28;20391;-44
2022/11/18 12:39:26;;;;;;;3.63;1.93;;;;;;;;;;5024982;28;20412;-44
2022/11/18 12:44:45;;;;;;;10.80;2.63;;;;;;;;;;5026359;28;20938;-43
2022/11/18 12:47:15;;;;;;;4.80;2.20;;;;;;;;;;5015528;28;20413;-43
2022/11/18 12:49:43;;;;;;;4.83;1.90;;;;;;;;;;5025423;28;20724;-43
2022/11/18 12:52:28;;;;;;;4.13;2.37;;;;;;;;;;5019372;28;20471;-43
2022/11/18 12:54:54;;;;;;;3.10;1.77;;;;;;;;;;5017774;28;20399;-43
2022/11/18 12:57:28;;;;;;;4.20;2.90;;;;;;;;;;5025128;28;20381;-43
2022/11/18 12:59:54;;;;;;;12.47;2.80;;;;;;;;;;5022224;28;20397;-43
2022/11/18 13:02:23;;;;;;;5.70;2.30;;;;;;;;;;5024493;28;20396;-43
2022/11/18 13:05:09;;;;;;;7.10;2.50;;;;;;;;;;5027845;28;20380;-43
2022/11/18 13:10:31;;;;;;;2.80;2.20;;;;;;;;;;5016590;28;20450;-43
2022/11/18 13:12:58;;;;;;;5.87;2.20;;;;;;;;;;5017885;28;20982;-43
2022/11/18 13:18:15;;;;;;;7.47;3.07;;;;;;;;;;5021440;28;20905;-44
2022/11/18 13:20:41;;;;;;;3.73;2.10;;;;;;;;;;5022947;28;20824;-43
2022/11/18 13:26:14;;;;;;;3.23;2.93;;;;;;;;;;5029852;28;20399;-43
2022/11/18 13:28:46;;;;;;;7.03;2.87;;;;;;;;;;5026552;28;20488;-43
2022/11/18 13:31:17;;;;;;;10.87;2.40;;;;;;;;;;5021841;28;20469;-42
2022/11/18 13:33:43;;;;;;;10.10;2.30;;;;;;;;;;5019601;28;20916;-43
2022/11/18 13:36:19;;;;;;;5.20;2.10;;;;;;;;;;5021410;28;20383;-43
2022/11/18 13:38:55;;;;;;;9.13;2.37;;;;;;;;;;5021333;28;20403;-43
2022/11/18 13:41:23;;;;;;;6.40;3.43;;;;;;;;;;5014637;28;20844;-43
2022/11/18 13:43:49;;;;;;;4.50;2.20;;;;;;;;;;5021971;28;20386;-44
2022/11/18 13:46:18;;;;;;;6.10;2.23;;;;;;;;;;5017695;28;20485;-44
2022/11/18 13:48:47;;;;;;;5.20;3.10;;;;;;;;;;5023931;28;20392;-43
2022/11/18 13:51:13;;;;;;;3.57;2.07;;;;;;;;;;5016883;28;20488;-43
2022/11/18 13:53:40;;;;;;;2.17;1.97;;;;;;;;;;5024702;28;20422;-43
2022/11/18 13:56:07;;;;;;;8.20;2.63;;;;;;;;;;5021655;28;20416;-43
2022/11/18 13:58:33;;;;;;;4.77;2.20;;;;;;;;;;5022184;28;20401;-43
2022/11/18 14:01:00;;;;;;;5.93;2.80;;;;;;;;;;5012106;28;20766;-43
2022/11/18 14:03:33;;;;;;;5.10;2.23;;;;;;;;;;5020474;28;20422;-43
2022/11/18 14:05:59;;;;;;;4.67;3.10;;;;;;;;;;5021851;28;20420;-43
2022/11/18 14:08:32;;;;;;;4.40;2.30;;;;;;;;;;5020313;28;20418;-42
2022/11/18 14:10:59;;;;;;;8.33;2.60;;;;;;;;;;5021729;28;20436;-43
2022/11/18 14:13:26;;;;;;;6.00;2.17;;;;;;;;;;5025311;28;20429;-43
2022/11/18 14:16:03;;;;;;;3.33;2.03;;;;;;;;;;5018424;28;20391;-43
2022/11/18 14:18:29;;;;;;;9.80;2.23;;;;;;;;;;5019343;28;20490;-43
2022/11/18 14:20:55;;;;;;;2.87;2.20;;;;;;;;;;5023288;28;21034;-43
2022/11/18 14:23:27;;;;;;;4.90;2.00;;;;;;;;;;5023593;28;20475;-43
2022/11/18 14:25:53;;;;;;;2.87;2.50;;;;;;;;;;5023325;28;20491;-43
2022/11/18 14:28:25;;;;;;;9.90;2.57;;;;;;;;;;5019180;28;20388;-43
2022/11/18 14:30:59;;;;;;;5.87;2.30;;;;;;;;;;5021670;28;20531;-42
2022/11/18 14:33:25;;;;;;;11.60;2.43;;;;;;;;;;5018903;28;20459;-43
2022/11/18 14:35:59;;;;;;;5.60;2.43;;;;;;;;;;5020892;28;20416;-43
2022/11/18 14:38:29;;;;;;;7.77;2.57;;;;;;;;;;5023355;28;20425;-43
2022/11/18 14:40:56;;;;;;;10.47;2.60;;;;;;;;;;5019439;28;20448;-43
2022/11/18 14:43:23;;;;;;;2.93;2.07;;;;;;;;;;5021517;28;20552;-43
2022/11/18 14:45:49;;;;;;;6.27;2.30;;;;;;;;;;5022534;28;20410;-42
2022/11/18 14:48:16;;;;;;;9.67;2.40;;;;;;;;;;5019884;28;20422;-42
2022/11/18 14:50:42;;;;;;;4.53;2.03;;;;;;;;;;5023159;28;20466;-42
2022/11/18 14:53:10;;;;;;;5.37;2.27;;;;;;;;;;5019977;28;20427;-42
2022/11/18 14:55:36;;;;;;;8.50;2.50;;;;;;;;;;5022902;28;20414;-42
2022/11/18 14:58:02;;;;;;;4.87;2.63;;;;;;;;;;5018348;28;20482;-42
2022/11/18 15:00:28;;;;;;;9.03;2.70;;;;;;;;;;5018647;28;20451;-43
2022/11/18 15:02:54;;;;;;;10.17;2.97;;;;;;;;;;5019678;28;20493;-43
2022/11/18 15:05:20;;;;;;;14.20;3.17;;;;;;;;;;5021181;28;20442;-42
2022/11/18 15:07:46;;;;;;;8.43;3.20;;;;;;;;;;5021646;28;20412;-42
2022/11/18 15:10:16;;;;;;;10.30;3.30;;;;;;;;;;5024589;28;20946;-43
2022/11/18 15:12:42;;;;;;;7.60;3.13;;;;;;;;;;5024419;28;20977;-42
2022/11/18 15:15:08;;;;;;;10.47;3.30;;;;;;;;;;5016405;28;20402;-42